sensor_id;sensor_type;location;lat;lon;timestamp;P1;durP1;ratioP1;P2;durP2;ratioP2
52274;SDS011;38228;50.940;4.024;2023-09-12T00:01:40;47.83;;;31.75;;
52274;SDS011;38228;50.940;4.024;2023-09-12T00:04:06;49.97;;;30.38;;
52274;SDS011;38228;50.940;4.024;2023-09-12T00:06:32;47.72;;;30.48;;
52274;SDS011;38228;50.940;4.024;2023-09-12T00:08:57;48.35;;;30.35;;
52274;SDS011;38228;50.940;4.024;2023-09-12T00:11:23;46.75;;;29.48;;
52274;SDS011;38228;50.940;4.024;2023-09-12T00:13:50;47.78;;;30.30;;
52274;SDS011;38228;50.940;4.024;2023-09-12T00:16:16;45.50;;;29.60;;
52274;SDS011;38228;50.940;4.024;2023-09-12T00:18:42;48.00;;;30.85;;
52274;SDS011;38228;50.940;4.024;2023-09-12T00:21:08;46.30;;;31.02;;
52274;SDS011;38228;50.940;4.024;2023-09-12T00:23:34;48.05;;;30.45;;
52274;SDS011;38228;50.940;4.024;2023-09-12T00:26:00;47.83;;;30.10;;
52274;SDS011;38228;50.940;4.024;2023-09-12T00:28:25;47.85;;;31.10;;
52274;SDS011;38228;50.940;4.024;2023-09-12T00:30:51;45.67;;;30.05;;
52274;SDS011;38228;50.940;4.024;2023-09-12T00:33:17;47.38;;;30.95;;
52274;SDS011;38228;50.940;4.024;2023-09-12T00:35:43;44.60;;;30.50;;
52274;SDS011;38228;50.940;4.024;2023-09-12T00:38:09;41.80;;;29.23;;
52274;SDS011;38228;50.940;4.024;2023-09-12T00:40:35;43.22;;;29.25;;
52274;SDS011;38228;50.940;4.024;2023-09-12T00:43:02;42.03;;;27.65;;
52274;SDS011;38228;50.940;4.024;2023-09-12T00:45:28;41.92;;;27.67;;
52274;SDS011;38228;50.940;4.024;2023-09-12T00:47:54;43.90;;;28.40;;
52274;SDS011;38228;50.940;4.024;2023-09-12T00:50:22;45.92;;;28.58;;
52274;SDS011;38228;50.940;4.024;2023-09-12T00:52:50;46.78;;;29.02;;
52274;SDS011;38228;50.940;4.024;2023-09-12T00:55:17;45.90;;;29.85;;
52274;SDS011;38228;50.940;4.024;2023-09-12T00:57:43;46.10;;;30.77;;
52274;SDS011;38228;50.940;4.024;2023-09-12T01:00:11;47.85;;;30.08;;
52274;SDS011;38228;50.940;4.024;2023-09-12T01:02:42;46.88;;;30.70;;
52274;SDS011;38228;50.940;4.024;2023-09-12T01:05:09;45.05;;;30.10;;
52274;SDS011;38228;50.940;4.024;2023-09-12T01:07:36;46.95;;;31.48;;
52274;SDS011;38228;50.940;4.024;2023-09-12T01:10:03;44.00;;;29.48;;
52274;SDS011;38228;50.940;4.024;2023-09-12T01:12:29;41.85;;;28.75;;
52274;SDS011;38228;50.940;4.024;2023-09-12T01:14:55;46.25;;;29.58;;
52274;SDS011;38228;50.940;4.024;2023-09-12T01:17:22;42.13;;;29.08;;
52274;SDS011;38228;50.940;4.024;2023-09-12T01:19:48;42.35;;;29.13;;
52274;SDS011;38228;50.940;4.024;2023-09-12T01:27:35;46.65;;;27.77;;
52274;SDS011;38228;50.940;4.024;2023-09-12T01:30:04;42.35;;;27.75;;
52274;SDS011;38228;50.940;4.024;2023-09-12T01:32:33;42.05;;;28.30;;
52274;SDS011;38228;50.940;4.024;2023-09-12T01:35:00;47.65;;;29.08;;
52274;SDS011;38228;50.940;4.024;2023-09-12T01:37:28;46.55;;;28.80;;
52274;SDS011;38228;50.940;4.024;2023-09-12T01:39:57;42.70;;;27.83;;
52274;SDS011;38228;50.940;4.024;2023-09-12T01:42:23;43.78;;;29.05;;
52274;SDS011;38228;50.940;4.024;2023-09-12T01:44:54;43.55;;;28.00;;
52274;SDS011;38228;50.940;4.024;2023-09-12T01:47:21;44.58;;;29.25;;
52274;SDS011;38228;50.940;4.024;2023-09-12T01:49:49;43.28;;;29.20;;
52274;SDS011;38228;50.940;4.024;2023-09-12T01:52:19;46.60;;;29.45;;
52274;SDS011;38228;50.940;4.024;2023-09-12T01:54:46;46.38;;;31.05;;
52274;SDS011;38228;50.940;4.024;2023-09-12T01:57:14;46.33;;;30.50;;
52274;SDS011;38228;50.940;4.024;2023-09-12T01:59:40;48.85;;;30.90;;
52274;SDS011;38228;50.940;4.024;2023-09-12T02:02:07;50.97;;;31.05;;
52274;SDS011;38228;50.940;4.024;2023-09-12T02:04:32;47.20;;;30.60;;
52274;SDS011;38228;50.940;4.024;2023-09-12T02:06:58;43.83;;;30.05;;
52274;SDS011;38228;50.940;4.024;2023-09-12T02:09:24;47.92;;;30.50;;
52274;SDS011;38228;50.940;4.024;2023-09-12T02:11:50;49.70;;;29.63;;
52274;SDS011;38228;50.940;4.024;2023-09-12T02:14:16;46.83;;;30.08;;
52274;SDS011;38228;50.940;4.024;2023-09-12T02:16:45;42.28;;;29.10;;
52274;SDS011;38228;50.940;4.024;2023-09-12T02:19:10;45.25;;;28.20;;
52274;SDS011;38228;50.940;4.024;2023-09-12T02:21:36;41.33;;;27.35;;
52274;SDS011;38228;50.940;4.024;2023-09-12T02:24:02;41.70;;;28.48;;
52274;SDS011;38228;50.940;4.024;2023-09-12T02:26:28;47.67;;;29.85;;
52274;SDS011;38228;50.940;4.024;2023-09-12T02:28:53;47.17;;;28.50;;
52274;SDS011;38228;50.940;4.024;2023-09-12T02:31:19;39.92;;;28.08;;
52274;SDS011;38228;50.940;4.024;2023-09-12T02:33:45;44.05;;;27.48;;
52274;SDS011;38228;50.940;4.024;2023-09-12T02:36:10;41.67;;;27.20;;
52274;SDS011;38228;50.940;4.024;2023-09-12T02:38:36;44.03;;;28.38;;
52274;SDS011;38228;50.940;4.024;2023-09-12T02:41:02;47.00;;;27.80;;
52274;SDS011;38228;50.940;4.024;2023-09-12T02:43:28;40.67;;;28.02;;
52274;SDS011;38228;50.940;4.024;2023-09-12T02:45:54;46.10;;;29.85;;
52274;SDS011;38228;50.940;4.024;2023-09-12T02:48:20;49.90;;;30.88;;
52274;SDS011;38228;50.940;4.024;2023-09-12T02:50:46;49.15;;;31.75;;
52274;SDS011;38228;50.940;4.024;2023-09-12T02:53:11;51.45;;;33.35;;
52274;SDS011;38228;50.940;4.024;2023-09-12T02:55:41;49.38;;;31.55;;
52274;SDS011;38228;50.940;4.024;2023-09-12T02:58:07;53.08;;;31.88;;
52274;SDS011;38228;50.940;4.024;2023-09-12T03:00:37;44.60;;;29.48;;
52274;SDS011;38228;50.940;4.024;2023-09-12T03:03:03;47.55;;;29.00;;
52274;SDS011;38228;50.940;4.024;2023-09-12T03:05:29;45.22;;;29.20;;
52274;SDS011;38228;50.940;4.024;2023-09-12T03:07:55;42.20;;;26.88;;
52274;SDS011;38228;50.940;4.024;2023-09-12T03:10:20;40.92;;;27.20;;
52274;SDS011;38228;50.940;4.024;2023-09-12T03:12:46;45.58;;;27.05;;
52274;SDS011;38228;50.940;4.024;2023-09-12T03:15:12;36.03;;;25.63;;
52274;SDS011;38228;50.940;4.024;2023-09-12T03:17:37;37.47;;;25.63;;
52274;SDS011;38228;50.940;4.024;2023-09-12T03:20:03;38.45;;;25.58;;
52274;SDS011;38228;50.940;4.024;2023-09-12T03:22:33;38.55;;;25.77;;
52274;SDS011;38228;50.940;4.024;2023-09-12T03:25:03;38.08;;;26.77;;
52274;SDS011;38228;50.940;4.024;2023-09-12T03:27:29;39.85;;;26.42;;
52274;SDS011;38228;50.940;4.024;2023-09-12T03:29:55;37.65;;;25.70;;
52274;SDS011;38228;50.940;4.024;2023-09-12T03:32:21;39.28;;;26.17;;
52274;SDS011;38228;50.940;4.024;2023-09-12T03:34:47;39.50;;;26.17;;
52274;SDS011;38228;50.940;4.024;2023-09-12T03:37:12;37.40;;;26.00;;
52274;SDS011;38228;50.940;4.024;2023-09-12T03:39:38;36.25;;;24.70;;
52274;SDS011;38228;50.940;4.024;2023-09-12T03:42:04;37.67;;;24.98;;
52274;SDS011;38228;50.940;4.024;2023-09-12T03:44:30;34.75;;;24.90;;
52274;SDS011;38228;50.940;4.024;2023-09-12T03:46:55;36.30;;;25.33;;
52274;SDS011;38228;50.940;4.024;2023-09-12T03:49:23;39.90;;;26.33;;
52274;SDS011;38228;50.940;4.024;2023-09-12T03:51:48;37.95;;;24.92;;
52274;SDS011;38228;50.940;4.024;2023-09-12T03:54:14;41.58;;;26.90;;
52274;SDS011;38228;50.940;4.024;2023-09-12T03:56:40;41.35;;;27.17;;
52274;SDS011;38228;50.940;4.024;2023-09-12T03:59:06;42.38;;;26.63;;
52274;SDS011;38228;50.940;4.024;2023-09-12T04:01:32;40.25;;;26.80;;
52274;SDS011;38228;50.940;4.024;2023-09-12T04:03:57;38.70;;;25.60;;
52274;SDS011;38228;50.940;4.024;2023-09-12T04:06:23;36.92;;;26.25;;
52274;SDS011;38228;50.940;4.024;2023-09-12T04:08:49;35.95;;;25.73;;
52274;SDS011;38228;50.940;4.024;2023-09-12T04:11:14;39.63;;;26.27;;
52274;SDS011;38228;50.940;4.024;2023-09-12T04:13:40;41.97;;;26.92;;
52274;SDS011;38228;50.940;4.024;2023-09-12T04:16:06;38.20;;;25.90;;
52274;SDS011;38228;50.940;4.024;2023-09-12T04:18:31;39.92;;;26.77;;
52274;SDS011;38228;50.940;4.024;2023-09-12T04:20:57;36.25;;;25.65;;
52274;SDS011;38228;50.940;4.024;2023-09-12T04:23:24;44.25;;;26.13;;
52274;SDS011;38228;50.940;4.024;2023-09-12T04:25:50;38.90;;;25.77;;
52274;SDS011;38228;50.940;4.024;2023-09-12T04:28:15;39.20;;;25.50;;
52274;SDS011;38228;50.940;4.024;2023-09-12T04:30:41;40.00;;;26.65;;
52274;SDS011;38228;50.940;4.024;2023-09-12T04:33:07;41.45;;;26.63;;
52274;SDS011;38228;50.940;4.024;2023-09-12T04:35:34;38.38;;;25.55;;
52274;SDS011;38228;50.940;4.024;2023-09-12T04:38:00;36.50;;;25.85;;
52274;SDS011;38228;50.940;4.024;2023-09-12T04:40:26;36.33;;;25.20;;
52274;SDS011;38228;50.940;4.024;2023-09-12T04:42:51;37.28;;;25.73;;
52274;SDS011;38228;50.940;4.024;2023-09-12T04:45:18;40.60;;;27.52;;
52274;SDS011;38228;50.940;4.024;2023-09-12T04:47:44;40.60;;;27.92;;
52274;SDS011;38228;50.940;4.024;2023-09-12T04:50:10;44.95;;;28.48;;
52274;SDS011;38228;50.940;4.024;2023-09-12T04:52:37;46.05;;;29.55;;
52274;SDS011;38228;50.940;4.024;2023-09-12T04:55:03;49.53;;;30.08;;
52274;SDS011;38228;50.940;4.024;2023-09-12T04:57:29;44.17;;;29.40;;
52274;SDS011;38228;50.940;4.024;2023-09-12T04:59:56;51.08;;;30.45;;
52274;SDS011;38228;50.940;4.024;2023-09-12T05:02:23;50.05;;;31.30;;
52274;SDS011;38228;50.940;4.024;2023-09-12T05:04:49;49.42;;;30.75;;
52274;SDS011;38228;50.940;4.024;2023-09-12T05:07:15;52.65;;;31.50;;
52274;SDS011;38228;50.940;4.024;2023-09-12T05:09:41;49.67;;;29.67;;
52274;SDS011;38228;50.940;4.024;2023-09-12T05:12:07;52.00;;;29.40;;
52274;SDS011;38228;50.940;4.024;2023-09-12T05:14:33;52.08;;;31.45;;
52274;SDS011;38228;50.940;4.024;2023-09-12T05:16:59;54.47;;;32.25;;
52274;SDS011;38228;50.940;4.024;2023-09-12T05:19:26;56.28;;;32.33;;
52274;SDS011;38228;50.940;4.024;2023-09-12T05:21:52;54.25;;;32.88;;
52274;SDS011;38228;50.940;4.024;2023-09-12T05:24:18;50.55;;;32.42;;
52274;SDS011;38228;50.940;4.024;2023-09-12T05:26:44;59.83;;;33.88;;
52274;SDS011;38228;50.940;4.024;2023-09-12T05:29:12;54.97;;;33.47;;
52274;SDS011;38228;50.940;4.024;2023-09-12T05:31:38;53.58;;;31.60;;
52274;SDS011;38228;50.940;4.024;2023-09-12T05:34:04;49.15;;;29.52;;
52274;SDS011;38228;50.940;4.024;2023-09-12T05:36:29;49.67;;;29.77;;
52274;SDS011;38228;50.940;4.024;2023-09-12T05:38:55;50.35;;;30.02;;
52274;SDS011;38228;50.940;4.024;2023-09-12T05:41:21;47.28;;;28.92;;
52274;SDS011;38228;50.940;4.024;2023-09-12T05:43:47;51.28;;;29.67;;
52274;SDS011;38228;50.940;4.024;2023-09-12T05:46:12;49.08;;;29.20;;
52274;SDS011;38228;50.940;4.024;2023-09-12T05:48:38;52.33;;;29.30;;
52274;SDS011;38228;50.940;4.024;2023-09-12T05:51:04;42.97;;;29.60;;
52274;SDS011;38228;50.940;4.024;2023-09-12T05:53:29;46.95;;;28.58;;
52274;SDS011;38228;50.940;4.024;2023-09-12T05:55:55;54.85;;;29.77;;
52274;SDS011;38228;50.940;4.024;2023-09-12T05:58:21;80.25;;;39.17;;
52274;SDS011;38228;50.940;4.024;2023-09-12T06:00:47;74.03;;;37.40;;
52274;SDS011;38228;50.940;4.024;2023-09-12T06:03:14;91.47;;;43.20;;
52274;SDS011;38228;50.940;4.024;2023-09-12T06:05:39;93.35;;;43.75;;
52274;SDS011;38228;50.940;4.024;2023-09-12T06:08:05;93.90;;;45.15;;
52274;SDS011;38228;50.940;4.024;2023-09-12T06:10:31;102.93;;;45.67;;
52274;SDS011;38228;50.940;4.024;2023-09-12T06:12:56;101.88;;;46.10;;
52274;SDS011;38228;50.940;4.024;2023-09-12T06:15:22;108.25;;;47.58;;
52274;SDS011;38228;50.940;4.024;2023-09-12T06:17:48;101.57;;;46.13;;
52274;SDS011;38228;50.940;4.024;2023-09-12T06:20:13;108.63;;;47.90;;
52274;SDS011;38228;50.940;4.024;2023-09-12T06:22:39;117.97;;;51.65;;
52274;SDS011;38228;50.940;4.024;2023-09-12T06:25:05;112.70;;;52.03;;
52274;SDS011;38228;50.940;4.024;2023-09-12T06:27:31;115.20;;;50.67;;
52274;SDS011;38228;50.940;4.024;2023-09-12T06:29:57;112.28;;;51.92;;
52274;SDS011;38228;50.940;4.024;2023-09-12T06:32:22;109.47;;;51.38;;
52274;SDS011;38228;50.940;4.024;2023-09-12T06:34:48;102.80;;;50.00;;
52274;SDS011;38228;50.940;4.024;2023-09-12T06:37:14;97.18;;;48.42;;
52274;SDS011;38228;50.940;4.024;2023-09-12T06:39:40;96.50;;;49.65;;
52274;SDS011;38228;50.940;4.024;2023-09-12T06:42:06;94.05;;;47.92;;
52274;SDS011;38228;50.940;4.024;2023-09-12T06:44:32;105.45;;;49.35;;
52274;SDS011;38228;50.940;4.024;2023-09-12T06:46:57;93.13;;;48.30;;
52274;SDS011;38228;50.940;4.024;2023-09-12T06:49:23;94.85;;;48.55;;
52274;SDS011;38228;50.940;4.024;2023-09-12T06:51:49;94.15;;;47.35;;
52274;SDS011;38228;50.940;4.024;2023-09-12T06:54:15;98.53;;;48.05;;
52274;SDS011;38228;50.940;4.024;2023-09-12T06:56:41;96.75;;;50.22;;
52274;SDS011;38228;50.940;4.024;2023-09-12T06:59:07;92.75;;;49.55;;
52274;SDS011;38228;50.940;4.024;2023-09-12T07:01:33;91.15;;;48.63;;
52274;SDS011;38228;50.940;4.024;2023-09-12T07:03:59;96.38;;;50.17;;
52274;SDS011;38228;50.940;4.024;2023-09-12T07:06:25;94.20;;;49.80;;
52274;SDS011;38228;50.940;4.024;2023-09-12T07:08:51;90.95;;;47.83;;
52274;SDS011;38228;50.940;4.024;2023-09-12T07:11:17;95.82;;;46.85;;
52274;SDS011;38228;50.940;4.024;2023-09-12T07:13:44;92.40;;;47.28;;
52274;SDS011;38228;50.940;4.024;2023-09-12T07:16:10;98.63;;;48.22;;
52274;SDS011;38228;50.940;4.024;2023-09-12T07:18:37;96.60;;;49.60;;
52274;SDS011;38228;50.940;4.024;2023-09-12T07:21:03;91.82;;;46.20;;
52274;SDS011;38228;50.940;4.024;2023-09-12T07:23:30;84.10;;;45.42;;
52274;SDS011;38228;50.940;4.024;2023-09-12T07:25:57;82.10;;;46.08;;
52274;SDS011;38228;50.940;4.024;2023-09-12T07:28:23;89.47;;;46.35;;
52274;SDS011;38228;50.940;4.024;2023-09-12T07:30:49;84.80;;;44.67;;
52274;SDS011;38228;50.940;4.024;2023-09-12T07:33:15;80.53;;;43.10;;
52274;SDS011;38228;50.940;4.024;2023-09-12T07:35:41;83.35;;;43.55;;
52274;SDS011;38228;50.940;4.024;2023-09-12T07:38:07;89.88;;;45.20;;
52274;SDS011;38228;50.940;4.024;2023-09-12T07:40:32;79.85;;;42.35;;
52274;SDS011;38228;50.940;4.024;2023-09-12T07:42:58;81.43;;;43.63;;
52274;SDS011;38228;50.940;4.024;2023-09-12T07:45:24;84.50;;;44.30;;
52274;SDS011;38228;50.940;4.024;2023-09-12T07:47:49;76.70;;;43.03;;
52274;SDS011;38228;50.940;4.024;2023-09-12T07:50:15;76.90;;;42.58;;
52274;SDS011;38228;50.940;4.024;2023-09-12T07:52:41;84.22;;;43.97;;
52274;SDS011;38228;50.940;4.024;2023-09-12T07:55:07;87.15;;;45.17;;
52274;SDS011;38228;50.940;4.024;2023-09-12T07:57:33;87.22;;;44.60;;
52274;SDS011;38228;50.940;4.024;2023-09-12T08:00:00;84.68;;;43.58;;
52274;SDS011;38228;50.940;4.024;2023-09-12T08:02:26;89.75;;;45.72;;
52274;SDS011;38228;50.940;4.024;2023-09-12T08:04:52;91.65;;;47.38;;
52274;SDS011;38228;50.940;4.024;2023-09-12T08:07:20;95.18;;;46.25;;
52274;SDS011;38228;50.940;4.024;2023-09-12T08:12:16;102.70;;;49.55;;
52274;SDS011;38228;50.940;4.024;2023-09-12T08:14:43;89.82;;;46.50;;
52274;SDS011;38228;50.940;4.024;2023-09-12T08:17:10;84.03;;;44.40;;
52274;SDS011;38228;50.940;4.024;2023-09-12T08:19:36;88.05;;;46.00;;
52274;SDS011;38228;50.940;4.024;2023-09-12T08:22:01;83.35;;;44.90;;
52274;SDS011;38228;50.940;4.024;2023-09-12T08:24:27;87.72;;;45.42;;
52274;SDS011;38228;50.940;4.024;2023-09-12T08:26:53;76.05;;;41.60;;
52274;SDS011;38228;50.940;4.024;2023-09-12T08:29:19;79.75;;;43.20;;
52274;SDS011;38228;50.940;4.024;2023-09-12T08:31:45;70.35;;;38.45;;
52274;SDS011;38228;50.940;4.024;2023-09-12T08:34:12;74.50;;;38.75;;
52274;SDS011;38228;50.940;4.024;2023-09-12T08:36:38;75.60;;;40.90;;
52274;SDS011;38228;50.940;4.024;2023-09-12T08:39:04;72.70;;;41.00;;
52274;SDS011;38228;50.940;4.024;2023-09-12T08:41:33;73.40;;;41.65;;
52274;SDS011;38228;50.940;4.024;2023-09-12T08:43:59;73.90;;;40.17;;
52274;SDS011;38228;50.940;4.024;2023-09-12T08:46:25;63.17;;;36.78;;
52274;SDS011;38228;50.940;4.024;2023-09-12T08:48:51;63.50;;;37.92;;
52274;SDS011;38228;50.940;4.024;2023-09-12T08:51:20;70.65;;;38.88;;
52274;SDS011;38228;50.940;4.024;2023-09-12T08:53:49;68.97;;;39.03;;
52274;SDS011;38228;50.940;4.024;2023-09-12T08:56:15;67.95;;;37.88;;
52274;SDS011;38228;50.940;4.024;2023-09-12T08:58:41;55.95;;;32.10;;
52274;SDS011;38228;50.940;4.024;2023-09-12T09:01:08;55.45;;;31.75;;
52274;SDS011;38228;50.940;4.024;2023-09-12T09:03:37;56.13;;;33.80;;
52274;SDS011;38228;50.940;4.024;2023-09-12T09:06:06;53.53;;;32.25;;
52274;SDS011;38228;50.940;4.024;2023-09-12T09:08:34;65.78;;;34.75;;
52274;SDS011;38228;50.940;4.024;2023-09-12T09:11:00;60.03;;;35.63;;
52274;SDS011;38228;50.940;4.024;2023-09-12T09:13:31;61.83;;;34.60;;
52274;SDS011;38228;50.940;4.024;2023-09-12T09:18:52;59.20;;;34.80;;
52274;SDS011;38228;50.940;4.024;2023-09-12T09:21:18;55.97;;;34.50;;
52274;SDS011;38228;50.940;4.024;2023-09-12T09:23:45;58.28;;;33.75;;
52274;SDS011;38228;50.940;4.024;2023-09-12T09:26:12;51.28;;;33.05;;
52274;SDS011;38228;50.940;4.024;2023-09-12T09:28:38;52.58;;;32.63;;
52274;SDS011;38228;50.940;4.024;2023-09-12T09:31:04;52.33;;;31.00;;
52274;SDS011;38228;50.940;4.024;2023-09-12T09:33:35;52.65;;;30.38;;
52274;SDS011;38228;50.940;4.024;2023-09-12T09:36:05;48.33;;;28.95;;
52274;SDS011;38228;50.940;4.024;2023-09-12T09:38:32;47.42;;;28.95;;
52274;SDS011;38228;50.940;4.024;2023-09-12T09:41:00;44.25;;;26.35;;
52274;SDS011;38228;50.940;4.024;2023-09-12T09:43:28;38.60;;;23.38;;
52274;SDS011;38228;50.940;4.024;2023-09-12T09:45:57;36.78;;;22.73;;
52274;SDS011;38228;50.940;4.024;2023-09-12T09:48:23;38.47;;;24.55;;
52274;SDS011;38228;50.940;4.024;2023-09-12T09:50:59;39.05;;;23.17;;
52274;SDS011;38228;50.940;4.024;2023-09-12T09:53:28;36.22;;;21.30;;
52274;SDS011;38228;50.940;4.024;2023-09-12T09:56:14;36.05;;;23.15;;
52274;SDS011;38228;50.940;4.024;2023-09-12T10:01:19;44.15;;;27.27;;
52274;SDS011;38228;50.940;4.024;2023-09-12T10:03:57;39.58;;;24.48;;
52274;SDS011;38228;50.940;4.024;2023-09-12T10:06:25;37.95;;;23.35;;
52274;SDS011;38228;50.940;4.024;2023-09-12T10:08:53;39.42;;;25.23;;
52274;SDS011;38228;50.940;4.024;2023-09-12T10:11:20;37.50;;;24.92;;
52274;SDS011;38228;50.940;4.024;2023-09-12T10:13:49;44.58;;;26.30;;
52274;SDS011;38228;50.940;4.024;2023-09-12T10:16:20;44.50;;;26.38;;
52274;SDS011;38228;50.940;4.024;2023-09-12T10:18:58;36.88;;;23.77;;
52274;SDS011;38228;50.940;4.024;2023-09-12T10:21:50;27.23;;;17.83;;
52274;SDS011;38228;50.940;4.024;2023-09-12T10:24:19;36.72;;;24.13;;
52274;SDS011;38228;50.940;4.024;2023-09-12T10:26:46;28.60;;;18.10;;
52274;SDS011;38228;50.940;4.024;2023-09-12T10:29:15;31.52;;;20.90;;
52274;SDS011;38228;50.940;4.024;2023-09-12T10:31:41;37.83;;;24.50;;
52274;SDS011;38228;50.940;4.024;2023-09-12T10:34:08;28.85;;;19.02;;
52274;SDS011;38228;50.940;4.024;2023-09-12T10:36:39;21.73;;;13.88;;
52274;SDS011;38228;50.940;4.024;2023-09-12T10:39:05;21.58;;;14.23;;
52274;SDS011;38228;50.940;4.024;2023-09-12T10:41:32;23.60;;;15.90;;
52274;SDS011;38228;50.940;4.024;2023-09-12T10:44:01;24.15;;;16.75;;
52274;SDS011;38228;50.940;4.024;2023-09-12T10:46:34;24.60;;;15.88;;
52274;SDS011;38228;50.940;4.024;2023-09-12T10:49:03;22.02;;;15.23;;
52274;SDS011;38228;50.940;4.024;2023-09-12T10:51:31;20.00;;;14.02;;
52274;SDS011;38228;50.940;4.024;2023-09-12T10:53:57;22.55;;;15.98;;
52274;SDS011;38228;50.940;4.024;2023-09-12T10:56:23;22.08;;;15.35;;
52274;SDS011;38228;50.940;4.024;2023-09-12T11:01:30;20.67;;;15.27;;
52274;SDS011;38228;50.940;4.024;2023-09-12T11:03:56;22.35;;;15.80;;
52274;SDS011;38228;50.940;4.024;2023-09-12T11:06:23;19.50;;;15.02;;
52274;SDS011;38228;50.940;4.024;2023-09-12T11:11:38;23.92;;;14.93;;
52274;SDS011;38228;50.940;4.024;2023-09-12T11:14:04;18.80;;;13.05;;
52274;SDS011;38228;50.940;4.024;2023-09-12T11:16:32;16.10;;;11.23;;
52274;SDS011;38228;50.940;4.024;2023-09-12T11:21:47;16.58;;;12.25;;
52274;SDS011;38228;50.940;4.024;2023-09-12T11:24:14;20.95;;;13.57;;
52274;SDS011;38228;50.940;4.024;2023-09-12T11:27:00;23.45;;;15.43;;
52274;SDS011;38228;50.940;4.024;2023-09-12T11:29:35;23.23;;;16.77;;
52274;SDS011;38228;50.940;4.024;2023-09-12T11:32:02;21.25;;;15.00;;
52274;SDS011;38228;50.940;4.024;2023-09-12T11:34:30;21.00;;;13.13;;
52274;SDS011;38228;50.940;4.024;2023-09-12T11:37:02;23.15;;;14.15;;
52274;SDS011;38228;50.940;4.024;2023-09-12T11:39:32;19.50;;;12.95;;
52274;SDS011;38228;50.940;4.024;2023-09-12T11:42:00;20.08;;;14.15;;
52274;SDS011;38228;50.940;4.024;2023-09-12T11:44:26;17.05;;;11.40;;
52274;SDS011;38228;50.940;4.024;2023-09-12T11:46:53;16.88;;;11.30;;
52274;SDS011;38228;50.940;4.024;2023-09-12T11:49:28;19.48;;;12.90;;
52274;SDS011;38228;50.940;4.024;2023-09-12T11:52:02;19.35;;;13.50;;
52274;SDS011;38228;50.940;4.024;2023-09-12T11:54:29;18.55;;;12.65;;
52274;SDS011;38228;50.940;4.024;2023-09-12T11:56:57;13.88;;;9.73;;
52274;SDS011;38228;50.940;4.024;2023-09-12T11:59:24;18.13;;;11.65;;
52274;SDS011;38228;50.940;4.024;2023-09-12T12:01:56;21.30;;;11.07;;
52274;SDS011;38228;50.940;4.024;2023-09-12T12:04:23;17.60;;;11.77;;
52274;SDS011;38228;50.940;4.024;2023-09-12T12:06:50;17.88;;;12.60;;
52274;SDS011;38228;50.940;4.024;2023-09-12T12:09:17;15.07;;;10.85;;
52274;SDS011;38228;50.940;4.024;2023-09-12T12:11:44;15.93;;;9.90;;
52274;SDS011;38228;50.940;4.024;2023-09-12T12:14:14;14.77;;;11.23;;
52274;SDS011;38228;50.940;4.024;2023-09-12T12:16:41;16.02;;;10.82;;
52274;SDS011;38228;50.940;4.024;2023-09-12T12:19:11;12.93;;;8.70;;
52274;SDS011;38228;50.940;4.024;2023-09-12T12:21:39;14.13;;;8.73;;
52274;SDS011;38228;50.940;4.024;2023-09-12T12:24:07;11.52;;;7.55;;
52274;SDS011;38228;50.940;4.024;2023-09-12T12:26:35;12.07;;;7.93;;
52274;SDS011;38228;50.940;4.024;2023-09-12T12:29:01;10.38;;;7.18;;
52274;SDS011;38228;50.940;4.024;2023-09-12T12:31:27;9.98;;;7.10;;
52274;SDS011;38228;50.940;4.024;2023-09-12T12:33:53;11.48;;;7.80;;
52274;SDS011;38228;50.940;4.024;2023-09-12T12:36:20;9.63;;;5.97;;
52274;SDS011;38228;50.940;4.024;2023-09-12T12:38:46;11.90;;;7.18;;
52274;SDS011;38228;50.940;4.024;2023-09-12T12:41:21;9.93;;;7.20;;
52274;SDS011;38228;50.940;4.024;2023-09-12T12:43:49;10.50;;;6.38;;
52274;SDS011;38228;50.940;4.024;2023-09-12T12:46:24;7.60;;;5.90;;
52274;SDS011;38228;50.940;4.024;2023-09-12T12:48:50;7.35;;;5.30;;
52274;SDS011;38228;50.940;4.024;2023-09-12T12:51:17;10.70;;;6.20;;
52274;SDS011;38228;50.940;4.024;2023-09-12T12:53:48;9.20;;;4.78;;
52274;SDS011;38228;50.940;4.024;2023-09-12T12:56:18;11.07;;;5.38;;
52274;SDS011;38228;50.940;4.024;2023-09-12T12:58:54;11.20;;;6.90;;
52274;SDS011;38228;50.940;4.024;2023-09-12T13:01:23;8.52;;;7.38;;
52274;SDS011;38228;50.940;4.024;2023-09-12T13:03:49;14.80;;;9.32;;
52274;SDS011;38228;50.940;4.024;2023-09-12T13:06:16;12.80;;;8.05;;
52274;SDS011;38228;50.940;4.024;2023-09-12T13:08:43;14.50;;;7.68;;
52274;SDS011;38228;50.940;4.024;2023-09-12T13:11:10;13.38;;;7.40;;
52274;SDS011;38228;50.940;4.024;2023-09-12T13:13:39;12.85;;;8.38;;
52274;SDS011;38228;50.940;4.024;2023-09-12T13:16:06;9.00;;;7.05;;
52274;SDS011;38228;50.940;4.024;2023-09-12T13:18:37;12.85;;;8.90;;
52274;SDS011;38228;50.940;4.024;2023-09-12T13:21:03;13.23;;;9.63;;
52274;SDS011;38228;50.940;4.024;2023-09-12T13:23:30;16.25;;;9.93;;
52274;SDS011;38228;50.940;4.024;2023-09-12T13:25:56;25.73;;;15.25;;
52274;SDS011;38228;50.940;4.024;2023-09-12T13:28:22;18.42;;;10.32;;
52274;SDS011;38228;50.940;4.024;2023-09-12T13:30:51;15.95;;;9.60;;
52274;SDS011;38228;50.940;4.024;2023-09-12T13:33:17;18.27;;;11.20;;
52274;SDS011;38228;50.940;4.024;2023-09-12T13:35:43;14.98;;;10.65;;
52274;SDS011;38228;50.940;4.024;2023-09-12T13:38:09;14.75;;;9.75;;
52274;SDS011;38228;50.940;4.024;2023-09-12T13:40:37;18.08;;;10.48;;
52274;SDS011;38228;50.940;4.024;2023-09-12T13:43:05;21.15;;;13.40;;
52274;SDS011;38228;50.940;4.024;2023-09-12T13:45:32;21.80;;;13.60;;
52274;SDS011;38228;50.940;4.024;2023-09-12T13:47:58;20.25;;;15.02;;
52274;SDS011;38228;50.940;4.024;2023-09-12T13:50:25;23.92;;;13.98;;
52274;SDS011;38228;50.940;4.024;2023-09-12T13:52:51;25.38;;;15.48;;
52274;SDS011;38228;50.940;4.024;2023-09-12T13:55:18;22.10;;;15.75;;
52274;SDS011;38228;50.940;4.024;2023-09-12T13:57:44;22.15;;;15.18;;
52274;SDS011;38228;50.940;4.024;2023-09-12T14:00:10;24.80;;;15.50;;
52274;SDS011;38228;50.940;4.024;2023-09-12T14:02:36;21.60;;;14.88;;
52274;SDS011;38228;50.940;4.024;2023-09-12T14:05:01;23.38;;;14.50;;
52274;SDS011;38228;50.940;4.024;2023-09-12T14:07:27;24.60;;;14.88;;
52274;SDS011;38228;50.940;4.024;2023-09-12T14:09:53;26.65;;;15.52;;
52274;SDS011;38228;50.940;4.024;2023-09-12T14:12:22;24.10;;;15.45;;
52274;SDS011;38228;50.940;4.024;2023-09-12T14:14:51;24.27;;;15.68;;
52274;SDS011;38228;50.940;4.024;2023-09-12T14:17:17;25.92;;;15.27;;
52274;SDS011;38228;50.940;4.024;2023-09-12T14:19:43;21.35;;;14.32;;
52274;SDS011;38228;50.940;4.024;2023-09-12T14:22:08;25.10;;;15.60;;
52274;SDS011;38228;50.940;4.024;2023-09-12T14:24:34;21.10;;;13.98;;
52274;SDS011;38228;50.940;4.024;2023-09-12T14:27:00;24.35;;;14.85;;
52274;SDS011;38228;50.940;4.024;2023-09-12T14:29:25;19.00;;;13.43;;
52274;SDS011;38228;50.940;4.024;2023-09-12T14:31:54;18.35;;;12.93;;
52274;SDS011;38228;50.940;4.024;2023-09-12T14:34:29;21.63;;;13.35;;
52274;SDS011;38228;50.940;4.024;2023-09-12T14:36:57;19.65;;;12.57;;
52274;SDS011;38228;50.940;4.024;2023-09-12T14:39:24;19.88;;;12.70;;
52274;SDS011;38228;50.940;4.024;2023-09-12T14:41:50;19.90;;;12.45;;
52274;SDS011;38228;50.940;4.024;2023-09-12T14:44:26;17.95;;;12.20;;